X  Schlie├čen METAR Luftfahrt Wetterdaten     EHRD Rotterdam The Hague Airport
Temperatur
1°C Temperatur
1°C Taupunkt
100% Feuchtigkeit



Wind
5 KM/S
3 MPS
1 M/S
3 KTS



340°
NNW
Aktuelle Wetterlage

Nebel Nebel
Luftdruck 1027.92 (hPa) - 30.35 (inHg)
Sichtweite 0.5 (Meile) - 0.8 (Km)
Flughafen
Flughafen Code EHRD

Position : Rotterdam The Hague Airport
Entfernung: 16 (Km)

Metar:
EHRD 010655Z AUTO 34003KT 310V020 0750 R06/0750U FG SCT000 OVC006 01/01 Q1028 TEMPO 1200 BCFG SCT035

Zeit: 01-12-2022 07:55 CET